sensor_id;sensor_type;location;lat;lon;timestamp;P1;durP1;ratioP1;P2;durP2;ratioP2
1957;SDS011;979;51.076;13.748;2023-11-22T08:07:26;15.30;;;14.90;;
1957;SDS011;979;51.076;13.748;2023-11-22T08:10:03;18.43;;;17.93;;
1957;SDS011;979;51.076;13.748;2023-11-22T08:12:51;15.00;;;14.70;;
1957;SDS011;979;51.076;13.748;2023-11-22T08:15:32;14.80;;;14.50;;
1957;SDS011;979;51.076;13.748;2023-11-22T08:18:41;15.10;;;14.50;;
1957;SDS011;979;51.076;13.748;2023-11-22T08:21:10;15.40;;;15.00;;
1957;SDS011;979;51.076;13.748;2023-11-22T08:24:09;16.20;;;15.70;;
1957;SDS011;979;51.076;13.748;2023-11-22T08:27:23;16.90;;;16.50;;
1957;SDS011;979;51.076;13.748;2023-11-22T08:30:26;14.53;;;14.23;;
1957;SDS011;979;51.076;13.748;2023-11-22T08:33:38;16.30;;;15.90;;
1957;SDS011;979;51.076;13.748;2023-11-22T08:36:25;15.50;;;15.10;;
1957;SDS011;979;51.076;13.748;2023-11-22T08:39:23;16.40;;;16.00;;
1957;SDS011;979;51.076;13.748;2023-11-22T08:42:21;15.03;;;14.73;;
1957;SDS011;979;51.076;13.748;2023-11-22T08:44:58;20.90;;;20.27;;
1957;SDS011;979;51.076;13.748;2023-11-22T08:47:42;16.10;;;15.70;;
1957;SDS011;979;51.076;13.748;2023-11-22T08:50:35;16.80;;;16.30;;
1957;SDS011;979;51.076;13.748;2023-11-22T08:53:29;16.23;;;15.83;;
1957;SDS011;979;51.076;13.748;2023-11-22T09:02:53;15.97;;;15.57;;
1957;SDS011;979;51.076;13.748;2023-11-22T09:05:40;15.80;;;15.40;;
1957;SDS011;979;51.076;13.748;2023-11-22T09:11:26;15.50;;;15.10;;
1957;SDS011;979;51.076;13.748;2023-11-22T09:14:32;15.90;;;15.50;;
1957;SDS011;979;51.076;13.748;2023-11-22T09:17:16;16.40;;;16.00;;
1957;SDS011;979;51.076;13.748;2023-11-22T09:20:09;14.30;;;14.00;;
1957;SDS011;979;51.076;13.748;2023-11-22T09:22:55;16.17;;;15.77;;
1957;SDS011;979;51.076;13.748;2023-11-22T09:27:18;15.80;;;15.40;;
1957;SDS011;979;51.076;13.748;2023-11-22T09:29:32;15.10;;;14.80;;
1957;SDS011;979;51.076;13.748;2023-11-22T09:32:14;15.40;;;15.10;;
1957;SDS011;979;51.076;13.748;2023-11-22T09:35:18;14.80;;;14.50;;
1957;SDS011;979;51.076;13.748;2023-11-22T09:38:28;15.63;;;15.23;;
1957;SDS011;979;51.076;13.748;2023-11-22T09:41:06;16.33;;;15.93;;
1957;SDS011;979;51.076;13.748;2023-11-22T09:44:18;16.03;;;15.63;;
1957;SDS011;979;51.076;13.748;2023-11-22T10:05:07;15.67;;;15.27;;
1957;SDS011;979;51.076;13.748;2023-11-22T10:11:09;14.80;;;14.50;;
1957;SDS011;979;51.076;13.748;2023-11-22T10:14:07;15.60;;;15.20;;
1957;SDS011;979;51.076;13.748;2023-11-22T10:17:53;16.80;;;16.40;;
1957;SDS011;979;51.076;13.748;2023-11-22T10:20:48;15.40;;;15.00;;
1957;SDS011;979;51.076;13.748;2023-11-22T10:23:53;22.20;;;21.43;;
1957;SDS011;979;51.076;13.748;2023-11-22T10:30:28;16.43;;;16.03;;
1957;SDS011;979;51.076;13.748;2023-11-22T10:33:17;15.00;;;14.70;;
1957;SDS011;979;51.076;13.748;2023-11-22T10:36:43;16.17;;;15.77;;
1957;SDS011;979;51.076;13.748;2023-11-22T10:42:59;16.00;;;15.60;;
1957;SDS011;979;51.076;13.748;2023-11-22T10:45:43;17.60;;;16.80;;
1957;SDS011;979;51.076;13.748;2023-11-22T10:48:52;15.40;;;15.10;;
1957;SDS011;979;51.076;13.748;2023-11-22T10:52:00;16.93;;;16.23;;
1957;SDS011;979;51.076;13.748;2023-11-22T10:54:49;16.10;;;15.70;;
1957;SDS011;979;51.076;13.748;2023-11-22T11:24:59;16.80;;;16.40;;
1957;SDS011;979;51.076;13.748;2023-11-22T11:33:02;16.77;;;16.27;;
1957;SDS011;979;51.076;13.748;2023-11-22T12:59:34;14.17;;;13.87;;
1957;SDS011;979;51.076;13.748;2023-11-22T13:02:33;14.50;;;14.20;;
1957;SDS011;979;51.076;13.748;2023-11-22T13:54:08;14.10;;;13.80;;
1957;SDS011;979;51.076;13.748;2023-11-22T14:12:05;14.00;;;13.70;;
1957;SDS011;979;51.076;13.748;2023-11-22T14:49:28;13.53;;;13.23;;
1957;SDS011;979;51.076;13.748;2023-11-22T15:17:08;14.23;;;13.87;;
1957;SDS011;979;51.076;13.748;2023-11-22T16:09:36;14.77;;;14.47;;
1957;SDS011;979;51.076;13.748;2023-11-22T16:12:10;13.70;;;13.40;;
1957;SDS011;979;51.076;13.748;2023-11-22T16:14:45;13.70;;;13.40;;
1957;SDS011;979;51.076;13.748;2023-11-22T16:30:14;16.70;;;16.30;;
1957;SDS011;979;51.076;13.748;2023-11-22T16:32:48;14.10;;;13.80;;
1957;SDS011;979;51.076;13.748;2023-11-22T16:35:16;14.27;;;13.97;;
1957;SDS011;979;51.076;13.748;2023-11-22T16:37:45;14.10;;;13.80;;
1957;SDS011;979;51.076;13.748;2023-11-22T16:40:14;15.23;;;14.93;;
1957;SDS011;979;51.076;13.748;2023-11-22T16:42:42;14.17;;;13.87;;
1957;SDS011;979;51.076;13.748;2023-11-22T16:45:11;14.30;;;14.00;;
1957;SDS011;979;51.076;13.748;2023-11-22T16:47:41;15.33;;;15.03;;
1957;SDS011;979;51.076;13.748;2023-11-22T16:50:09;14.50;;;14.20;;
1957;SDS011;979;51.076;13.748;2023-11-22T16:52:38;14.10;;;13.80;;
1957;SDS011;979;51.076;13.748;2023-11-22T16:55:10;13.63;;;13.33;;
1957;SDS011;979;51.076;13.748;2023-11-22T16:57:40;15.50;;;15.10;;
1957;SDS011;979;51.076;13.748;2023-11-22T17:00:09;14.97;;;14.57;;
1957;SDS011;979;51.076;13.748;2023-11-22T17:02:46;14.10;;;13.80;;
1957;SDS011;979;51.076;13.748;2023-11-22T17:05:16;15.13;;;14.73;;
1957;SDS011;979;51.076;13.748;2023-11-22T17:07:46;15.00;;;14.60;;
1957;SDS011;979;51.076;13.748;2023-11-22T17:10:15;14.90;;;14.50;;
1957;SDS011;979;51.076;13.748;2023-11-22T17:12:44;14.60;;;14.30;;
1957;SDS011;979;51.076;13.748;2023-11-22T17:15:12;15.03;;;14.63;;
1957;SDS011;979;51.076;13.748;2023-11-22T17:17:43;15.00;;;14.60;;
1957;SDS011;979;51.076;13.748;2023-11-22T17:20:13;14.37;;;14.07;;
1957;SDS011;979;51.076;13.748;2023-11-22T17:22:41;14.30;;;14.00;;
1957;SDS011;979;51.076;13.748;2023-11-22T17:25:10;15.40;;;15.00;;
1957;SDS011;979;51.076;13.748;2023-11-22T17:27:40;14.80;;;14.50;;
1957;SDS011;979;51.076;13.748;2023-11-22T17:30:20;15.20;;;14.90;;
1957;SDS011;979;51.076;13.748;2023-11-22T17:32:52;15.13;;;14.83;;
1957;SDS011;979;51.076;13.748;2023-11-22T17:35:22;18.07;;;17.57;;
1957;SDS011;979;51.076;13.748;2023-11-22T17:37:52;15.60;;;15.10;;
1957;SDS011;979;51.076;13.748;2023-11-22T17:40:21;15.40;;;15.10;;
1957;SDS011;979;51.076;13.748;2023-11-22T17:42:50;14.80;;;14.50;;
1957;SDS011;979;51.076;13.748;2023-11-22T17:45:19;15.27;;;14.87;;
1957;SDS011;979;51.076;13.748;2023-11-22T17:47:47;15.20;;;14.80;;
1957;SDS011;979;51.076;13.748;2023-11-22T17:50:16;14.83;;;14.53;;
1957;SDS011;979;51.076;13.748;2023-11-22T17:52:46;16.20;;;15.80;;
1957;SDS011;979;51.076;13.748;2023-11-22T17:55:16;15.20;;;14.80;;
1957;SDS011;979;51.076;13.748;2023-11-22T17:57:46;14.73;;;14.32;;
1957;SDS011;979;51.076;13.748;2023-11-22T18:00:14;14.67;;;14.37;;
1957;SDS011;979;51.076;13.748;2023-11-22T18:02:43;15.47;;;15.07;;
1957;SDS011;979;51.076;13.748;2023-11-22T18:05:13;15.50;;;15.10;;
1957;SDS011;979;51.076;13.748;2023-11-22T18:07:47;14.30;;;14.00;;
1957;SDS011;979;51.076;13.748;2023-11-22T18:10:17;17.93;;;17.43;;
1957;SDS011;979;51.076;13.748;2023-11-22T18:12:45;15.60;;;15.20;;
1957;SDS011;979;51.076;13.748;2023-11-22T18:15:14;15.67;;;15.27;;
1957;SDS011;979;51.076;13.748;2023-11-22T18:17:42;15.57;;;15.17;;
1957;SDS011;979;51.076;13.748;2023-11-22T18:20:10;16.43;;;16.03;;
1957;SDS011;979;51.076;13.748;2023-11-22T18:22:40;15.63;;;15.23;;
1957;SDS011;979;51.076;13.748;2023-11-22T18:25:10;16.33;;;15.87;;
1957;SDS011;979;51.076;13.748;2023-11-22T18:27:40;14.70;;;14.40;;
1957;SDS011;979;51.076;13.748;2023-11-22T18:30:10;18.40;;;16.70;;
1957;SDS011;979;51.076;13.748;2023-11-22T18:32:38;15.33;;;14.93;;
1957;SDS011;979;51.076;13.748;2023-11-22T18:35:09;14.47;;;14.17;;
1957;SDS011;979;51.076;13.748;2023-11-22T18:37:40;15.50;;;15.10;;
1957;SDS011;979;51.076;13.748;2023-11-22T18:40:11;14.70;;;14.40;;
1957;SDS011;979;51.076;13.748;2023-11-22T18:42:40;14.70;;;14.40;;
1957;SDS011;979;51.076;13.748;2023-11-22T18:45:08;16.13;;;15.63;;
1957;SDS011;979;51.076;13.748;2023-11-22T18:47:39;15.77;;;15.37;;
1957;SDS011;979;51.076;13.748;2023-11-22T18:50:08;14.30;;;14.00;;
1957;SDS011;979;51.076;13.748;2023-11-22T18:52:37;13.63;;;13.33;;
1957;SDS011;979;51.076;13.748;2023-11-22T18:55:05;14.10;;;13.80;;
1957;SDS011;979;51.076;13.748;2023-11-22T18:57:37;14.27;;;13.97;;
1957;SDS011;979;51.076;13.748;2023-11-22T19:00:07;14.90;;;14.60;;
1957;SDS011;979;51.076;13.748;2023-11-22T19:02:37;14.20;;;13.90;;
1957;SDS011;979;51.076;13.748;2023-11-22T19:05:05;14.10;;;13.80;;
1957;SDS011;979;51.076;13.748;2023-11-22T19:30:42;15.13;;;14.80;;
1957;SDS011;979;51.076;13.748;2023-11-22T20:31:59;15.20;;;14.80;;
1957;SDS011;979;51.076;13.748;2023-11-22T20:34:27;15.20;;;14.80;;
1957;SDS011;979;51.076;13.748;2023-11-22T20:40:55;15.10;;;14.80;;
1957;SDS011;979;51.076;13.748;2023-11-22T20:43:34;16.27;;;15.87;;
1957;SDS011;979;51.076;13.748;2023-11-22T20:46:11;15.20;;;14.90;;
1957;SDS011;979;51.076;13.748;2023-11-22T20:48:57;14.27;;;13.97;;
1957;SDS011;979;51.076;13.748;2023-11-22T20:55:23;19.77;;;19.27;;
1957;SDS011;979;51.076;13.748;2023-11-22T20:57:53;24.53;;;23.63;;
1957;SDS011;979;51.076;13.748;2023-11-22T21:00:22;19.80;;;19.30;;
1957;SDS011;979;51.076;13.748;2023-11-22T21:02:51;21.60;;;21.00;;
1957;SDS011;979;51.076;13.748;2023-11-22T21:05:21;19.97;;;19.40;;
1957;SDS011;979;51.076;13.748;2023-11-22T21:07:49;15.70;;;15.30;;
1957;SDS011;979;51.076;13.748;2023-11-22T21:10:18;14.80;;;14.40;;
1957;SDS011;979;51.076;13.748;2023-11-22T21:12:46;15.50;;;15.10;;
1957;SDS011;979;51.076;13.748;2023-11-22T21:15:15;23.43;;;22.67;;
1957;SDS011;979;51.076;13.748;2023-11-22T21:17:46;18.07;;;17.57;;
1957;SDS011;979;51.076;13.748;2023-11-22T21:20:15;19.50;;;19.00;;
1957;SDS011;979;51.076;13.748;2023-11-22T21:22:46;20.40;;;19.90;;
1957;SDS011;979;51.076;13.748;2023-11-22T21:25:14;22.43;;;21.83;;
1957;SDS011;979;51.076;13.748;2023-11-22T21:27:43;21.13;;;20.53;;
1957;SDS011;979;51.076;13.748;2023-11-22T21:30:14;24.60;;;23.90;;
1957;SDS011;979;51.076;13.748;2023-11-22T21:32:42;25.30;;;24.07;;
1957;SDS011;979;51.076;13.748;2023-11-22T22:57:26;26.57;;;25.77;;
